Time;durP1;ratioP1;P1;durP2;ratioP2;P2;SDS_P1;SDS_P2;PMS_P1;PMS_P2;Temp;Humidity;BMP_temperature;BMP_pressure;BME280_temperature;BME280_humidity;BME280_pressure;Samples;Min_cycle;Max_cycle;Signal;HPM_P1;HPM_P2
2023/01/14 00:01:45;;;;;;;15.20;5.72;;;;;;;;;;5066487;28;20039;-72
2023/01/14 00:04:11;;;;;;;18.13;5.25;;;;;;;;;;5057357;28;20080;-72
2023/01/14 00:06:38;;;;;;;19.05;5.15;;;;;;;;;;5063063;28;20099;-72
2023/01/14 00:09:06;;;;;;;12.73;4.65;;;;;;;;;;5059140;28;20048;-72
2023/01/14 00:11:49;;;;;;;11.27;4.68;;;;;;;;;;5065258;28;20406;-72
2023/01/14 00:14:18;;;;;;;9.85;4.80;;;;;;;;;;5066335;28;20032;-72
2023/01/14 00:16:45;;;;;;;13.73;4.97;;;;;;;;;;5064188;28;20044;-71
2023/01/14 00:19:11;;;;;;;13.20;5.82;;;;;;;;;;5062168;28;20494;-71
2023/01/14 00:21:37;;;;;;;18.98;4.93;;;;;;;;;;5066773;28;20040;-72
2023/01/14 00:24:04;;;;;;;16.45;4.90;;;;;;;;;;5060438;28;20041;-72
2023/01/14 00:26:30;;;;;;;23.38;5.65;;;;;;;;;;5062741;28;20176;-71
2023/01/14 00:28:56;;;;;;;16.85;6.13;;;;;;;;;;5062774;28;20117;-71
2023/01/14 00:31:24;;;;;;;15.77;5.38;;;;;;;;;;5061476;28;20186;-71
2023/01/14 00:33:50;;;;;;;15.20;4.70;;;;;;;;;;5061263;28;20032;-71
2023/01/14 00:36:17;;;;;;;15.75;4.95;;;;;;;;;;5057766;28;20041;-71
2023/01/14 00:38:43;;;;;;;13.00;4.43;;;;;;;;;;5054254;28;20376;-71
2023/01/14 00:41:14;;;;;;;13.45;4.07;;;;;;;;;;5065337;28;20355;-72
2023/01/14 00:43:41;;;;;;;12.40;5.10;;;;;;;;;;5057888;28;20037;-71
2023/01/14 00:46:10;;;;;;;16.67;3.88;;;;;;;;;;5062524;28;20125;-71
2023/01/14 00:48:37;;;;;;;17.80;5.53;;;;;;;;;;5069306;28;20045;-71
2023/01/14 00:51:04;;;;;;;10.10;4.07;;;;;;;;;;5059105;28;20861;-72
2023/01/14 00:53:30;;;;;;;20.17;6.03;;;;;;;;;;5063589;28;20040;-71
2023/01/14 00:55:56;;;;;;;16.70;4.20;;;;;;;;;;5060911;28;20133;-72
2023/01/14 00:58:23;;;;;;;12.15;4.22;;;;;;;;;;5065268;28;20090;-72
2023/01/14 01:00:49;;;;;;;15.95;5.00;;;;;;;;;;5064473;28;20080;-71
2023/01/14 01:03:16;;;;;;;15.10;4.47;;;;;;;;;;5060797;28;20059;-72
2023/01/14 01:05:42;;;;;;;18.30;5.22;;;;;;;;;;5056592;28;20071;-73
2023/01/14 01:08:10;;;;;;;22.45;6.13;;;;;;;;;;5061357;28;20045;-71
2023/01/14 01:10:36;;;;;;;17.00;5.82;;;;;;;;;;5056456;28;20040;-71
2023/01/14 01:13:05;;;;;;;13.75;4.97;;;;;;;;;;5066571;28;20043;-71
2023/01/14 01:15:32;;;;;;;16.75;4.72;;;;;;;;;;5049027;28;20186;-72
2023/01/14 01:17:59;;;;;;;18.08;5.15;;;;;;;;;;5051682;28;20045;-72
2023/01/14 01:20:25;;;;;;;17.33;4.95;;;;;;;;;;5061944;28;20043;-71
2023/01/14 01:22:51;;;;;;;15.70;4.80;;;;;;;;;;5060767;28;20036;-71
2023/01/14 01:25:17;;;;;;;15.73;4.68;;;;;;;;;;5057661;28;20041;-72
2023/01/14 01:27:43;;;;;;;20.55;7.18;;;;;;;;;;5059648;28;20037;-72
2023/01/14 01:30:10;;;;;;;16.90;5.43;;;;;;;;;;5060065;28;20412;-70
2023/01/14 01:32:36;;;;;;;22.55;5.60;;;;;;;;;;5056283;28;20041;-72
2023/01/14 01:35:02;;;;;;;15.30;5.15;;;;;;;;;;5053284;28;20040;-71
2023/01/14 01:37:28;;;;;;;24.80;5.78;;;;;;;;;;5059051;28;20070;-72
2023/01/14 01:39:54;;;;;;;12.32;4.50;;;;;;;;;;5060204;28;20032;-72
2023/01/14 01:42:23;;;;;;;16.02;6.03;;;;;;;;;;5065321;28;20047;-71
2023/01/14 01:44:49;;;;;;;25.77;5.90;;;;;;;;;;5060740;28;20040;-72
2023/01/14 01:47:18;;;;;;;15.38;5.40;;;;;;;;;;5060724;28;20453;-72
2023/01/14 01:49:45;;;;;;;14.77;5.28;;;;;;;;;;5060528;28;20029;-71
2023/01/14 01:52:14;;;;;;;18.67;5.22;;;;;;;;;;5065619;28;20332;-72
2023/01/14 01:54:43;;;;;;;19.83;5.43;;;;;;;;;;5063822;28;20144;-72
2023/01/14 01:57:11;;;;;;;19.75;5.88;;;;;;;;;;5052352;28;20055;-72
2023/01/14 01:59:39;;;;;;;15.55;5.50;;;;;;;;;;5067660;28;20037;-71
2023/01/14 02:02:06;;;;;;;20.63;5.60;;;;;;;;;;5074889;28;20041;-71
2023/01/14 02:04:32;;;;;;;14.20;5.18;;;;;;;;;;5062428;28;20045;-72
2023/01/14 02:06:59;;;;;;;23.63;6.45;;;;;;;;;;5062661;28;20044;-71
2023/01/14 02:09:25;;;;;;;21.15;6.35;;;;;;;;;;5066026;28;20174;-71
2023/01/14 02:11:57;;;;;;;20.38;5.22;;;;;;;;;;5066067;28;20191;-71
2023/01/14 02:14:42;;;;;;;16.83;4.63;;;;;;;;;;5062062;28;20041;-72
2023/01/14 02:17:23;;;;;;;16.25;5.43;;;;;;;;;;5066917;28;20051;-72
2023/01/14 02:19:57;;;;;;;14.73;4.70;;;;;;;;;;5074889;28;20074;-72
2023/01/14 02:22:33;;;;;;;16.50;4.18;;;;;;;;;;5067277;28;20044;-72
2023/01/14 02:25:18;;;;;;;13.93;4.78;;;;;;;;;;5058137;28;20536;-72
2023/01/14 02:28:03;;;;;;;16.90;5.55;;;;;;;;;;5067285;28;20028;-72
2023/01/14 02:30:38;;;;;;;21.05;5.97;;;;;;;;;;5067687;28;20063;-71
2023/01/14 02:33:08;;;;;;;16.63;4.93;;;;;;;;;;5071275;28;20040;-72
2023/01/14 02:35:47;;;;;;;14.98;5.00;;;;;;;;;;5061974;28;20093;-72
2023/01/14 02:38:32;;;;;;;14.32;5.53;;;;;;;;;;5064612;28;20509;-72
2023/01/14 02:41:01;;;;;;;10.70;4.65;;;;;;;;;;5061598;28;20041;-70
2023/01/14 02:46:32;;;;;;;20.23;6.15;;;;;;;;;;5064026;28;20055;-72
2023/01/14 02:49:00;;;;;;;21.75;6.53;;;;;;;;;;5068910;28;20064;-72
2023/01/14 02:51:26;;;;;;;22.70;5.40;;;;;;;;;;5062593;28;20413;-72
2023/01/14 02:53:52;;;;;;;19.52;5.68;;;;;;;;;;5071250;28;20083;-71
2023/01/14 02:56:19;;;;;;;16.35;5.55;;;;;;;;;;5065758;28;20045;-72
2023/01/14 02:59:04;;;;;;;16.77;5.88;;;;;;;;;;5062887;28;20036;-72
2023/01/14 03:01:36;;;;;;;18.35;5.68;;;;;;;;;;5070411;28;20036;-71
2023/01/14 03:04:21;;;;;;;13.35;4.65;;;;;;;;;;5062288;28;20059;-72
2023/01/14 03:06:47;;;;;;;17.25;5.88;;;;;;;;;;5061476;28;20040;-71
2023/01/14 03:09:33;;;;;;;23.27;4.53;;;;;;;;;;5057480;28;20048;-72
2023/01/14 03:12:06;;;;;;;25.52;5.30;;;;;;;;;;5062859;28;20048;-71
2023/01/14 03:14:41;;;;;;;12.75;4.13;;;;;;;;;;5063748;28;20040;-72
2023/01/14 03:17:10;;;;;;;10.48;4.55;;;;;;;;;;5056398;28;20040;-72
2023/01/14 03:19:39;;;;;;;14.05;5.15;;;;;;;;;;5059992;28;20039;-71
2023/01/14 03:22:06;;;;;;;16.88;4.55;;;;;;;;;;5067141;28;20049;-72
2023/01/14 03:24:37;;;;;;;15.77;4.15;;;;;;;;;;5064799;28;20032;-71
2023/01/14 03:27:08;;;;;;;14.88;4.95;;;;;;;;;;5062340;28;20047;-72
2023/01/14 03:29:37;;;;;;;11.40;4.20;;;;;;;;;;5062200;28;20461;-71
2023/01/14 03:32:07;;;;;;;14.93;5.25;;;;;;;;;;5062247;28;20049;-71
2023/01/14 03:34:39;;;;;;;14.73;4.45;;;;;;;;;;5064106;28;20072;-71
2023/01/14 03:37:07;;;;;;;16.53;4.83;;;;;;;;;;5067480;28;20425;-71
2023/01/14 03:39:33;;;;;;;20.65;4.18;;;;;;;;;;5059804;28;20645;-71
2023/01/14 03:42:19;;;;;;;22.13;5.43;;;;;;;;;;5063039;28;20148;-72
2023/01/14 03:44:54;;;;;;;12.82;4.30;;;;;;;;;;5056290;28;20040;-72
2023/01/14 03:47:21;;;;;;;11.38;4.25;;;;;;;;;;5063738;28;20043;-72
2023/01/14 03:49:48;;;;;;;16.50;4.85;;;;;;;;;;5065651;28;20028;-71
2023/01/14 03:52:19;;;;;;;23.38;4.88;;;;;;;;;;5064821;28;20043;-71
2023/01/14 03:55:03;;;;;;;12.40;4.75;;;;;;;;;;5060802;28;20052;-72
2023/01/14 03:57:36;;;;;;;19.20;4.57;;;;;;;;;;5059110;28;20801;-72
2023/01/14 04:00:15;;;;;;;19.42;4.90;;;;;;;;;;5062368;28;20597;-72
2023/01/14 04:02:42;;;;;;;14.88;4.93;;;;;;;;;;5050546;28;20071;-71
2023/01/14 04:05:08;;;;;;;16.92;5.60;;;;;;;;;;5066157;28;20053;-71
2023/01/14 04:07:35;;;;;;;13.52;4.82;;;;;;;;;;5061879;28;20491;-72
2023/01/14 04:10:01;;;;;;;13.75;5.03;;;;;;;;;;5060116;28;20410;-71
2023/01/14 04:12:27;;;;;;;16.00;4.30;;;;;;;;;;5058692;28;20045;-72
2023/01/14 04:17:38;;;;;;;15.70;4.68;;;;;;;;;;5063208;28;20040;-72
2023/01/14 04:20:05;;;;;;;13.93;5.13;;;;;;;;;;5057064;28;20051;-72
2023/01/14 04:22:31;;;;;;;15.32;4.72;;;;;;;;;;5062640;28;20057;-72
2023/01/14 04:24:57;;;;;;;10.20;4.70;;;;;;;;;;5061003;28;20087;-72
2023/01/14 04:27:24;;;;;;;16.05;4.93;;;;;;;;;;5063098;28;20074;-71
2023/01/14 04:29:50;;;;;;;15.90;4.70;;;;;;;;;;5056409;28;20094;-71
2023/01/14 04:32:16;;;;;;;18.63;5.40;;;;;;;;;;5065096;28;20044;-72
2023/01/14 04:34:42;;;;;;;18.48;5.50;;;;;;;;;;5065806;28;20079;-71
2023/01/14 04:37:08;;;;;;;17.88;4.35;;;;;;;;;;5063926;28;20243;-71
2023/01/14 04:39:34;;;;;;;16.92;5.90;;;;;;;;;;5061793;28;20036;-71
2023/01/14 04:44:47;;;;;;;15.15;4.00;;;;;;;;;;5063736;28;20332;-72
2023/01/14 04:47:14;;;;;;;23.80;6.85;;;;;;;;;;5064263;28;20033;-72
2023/01/14 04:49:40;;;;;;;18.98;5.15;;;;;;;;;;5055662;28;20052;-71
2023/01/14 04:52:06;;;;;;;16.00;4.57;;;;;;;;;;5060338;28;20498;-71
2023/01/14 04:54:32;;;;;;;15.90;4.50;;;;;;;;;;5065960;28;20037;-72
2023/01/14 04:56:58;;;;;;;18.10;5.35;;;;;;;;;;5058980;28;20453;-70
2023/01/14 04:59:24;;;;;;;14.88;5.30;;;;;;;;;;5058642;28;20071;-71
2023/01/14 05:01:51;;;;;;;16.02;4.30;;;;;;;;;;5061002;28;20070;-71
2023/01/14 05:04:17;;;;;;;20.55;6.10;;;;;;;;;;5045680;28;20543;-71
2023/01/14 05:06:43;;;;;;;20.95;7.25;;;;;;;;;;5063318;28;20041;-71
2023/01/14 05:09:09;;;;;;;17.08;6.90;;;;;;;;;;5061070;28;20045;-71
2023/01/14 05:11:35;;;;;;;20.08;5.68;;;;;;;;;;5059057;28;20047;-71
2023/01/14 05:14:01;;;;;;;19.98;5.72;;;;;;;;;;5060768;28;20131;-71
2023/01/14 05:16:27;;;;;;;25.85;5.35;;;;;;;;;;5055539;28;20045;-71
2023/01/14 05:18:54;;;;;;;25.35;5.25;;;;;;;;;;5056890;28;20071;-71
2023/01/14 05:21:20;;;;;;;14.30;4.95;;;;;;;;;;5055284;28;20418;-71
2023/01/14 05:23:46;;;;;;;16.75;5.50;;;;;;;;;;5062869;28;20033;-72
2023/01/14 05:26:13;;;;;;;15.40;5.35;;;;;;;;;;5055292;28;20051;-72
2023/01/14 05:28:39;;;;;;;16.95;5.38;;;;;;;;;;5064883;28;20453;-71
2023/01/14 05:31:05;;;;;;;23.88;5.85;;;;;;;;;;5066078;28;20150;-71
2023/01/14 05:33:31;;;;;;;23.27;5.18;;;;;;;;;;5066309;28;20072;-71
2023/01/14 05:35:58;;;;;;;18.15;4.88;;;;;;;;;;5057199;28;20044;-71
2023/01/14 05:38:24;;;;;;;11.68;4.45;;;;;;;;;;5058857;28;20037;-71
2023/01/14 05:40:51;;;;;;;14.63;4.80;;;;;;;;;;5062509;28;20045;-71
2023/01/14 05:46:04;;;;;;;16.38;4.63;;;;;;;;;;5060360;28;20401;-71
2023/01/14 05:48:31;;;;;;;15.95;4.55;;;;;;;;;;5061033;28;20068;-72
2023/01/14 05:50:58;;;;;;;16.95;4.97;;;;;;;;;;5061637;28;20040;-71
2023/01/14 05:53:25;;;;;;;14.05;5.32;;;;;;;;;;5064273;28;20040;-72
2023/01/14 05:55:51;;;;;;;17.10;5.85;;;;;;;;;;5062605;28;20056;-72
2023/01/14 05:58:18;;;;;;;17.73;5.97;;;;;;;;;;5068043;28;20517;-72
2023/01/14 06:06:23;;;;;;;17.30;4.90;;;;;;;;;;5065815;28;20055;-71
2023/01/14 06:08:54;;;;;;;21.08;5.03;;;;;;;;;;5061729;28;20044;-71
2023/01/14 06:11:20;;;;;;;16.35;5.15;;;;;;;;;;5057921;28;20120;-71
2023/01/14 06:13:51;;;;;;;22.73;6.15;;;;;;;;;;5057561;28;20044;-71
2023/01/14 06:16:18;;;;;;;17.27;5.20;;;;;;;;;;5063556;28;20044;-72
2023/01/14 06:18:44;;;;;;;15.57;6.47;;;;;;;;;;5060046;28;20087;-72
2023/01/14 06:21:12;;;;;;;16.60;5.70;;;;;;;;;;5066076;28;20076;-72
2023/01/14 06:23:39;;;;;;;13.13;5.93;;;;;;;;;;5061812;28;20037;-71
2023/01/14 06:26:08;;;;;;;12.57;5.20;;;;;;;;;;5060943;28;20499;-71
2023/01/14 06:28:34;;;;;;;17.35;5.85;;;;;;;;;;5057229;28;20490;-70
2023/01/14 06:31:00;;;;;;;17.15;6.43;;;;;;;;;;5055720;28;20041;-72
2023/01/14 06:33:26;;;;;;;17.45;5.22;;;;;;;;;;5063131;28;20063;-72
2023/01/14 06:35:55;;;;;;;19.58;6.70;;;;;;;;;;5060886;28;20049;-71
2023/01/14 06:38:21;;;;;;;13.73;5.43;;;;;;;;;;5061900;28;20036;-72
2023/01/14 06:40:47;;;;;;;17.63;6.78;;;;;;;;;;5057716;28;20124;-72
2023/01/14 06:43:13;;;;;;;19.30;6.97;;;;;;;;;;5057191;28;20080;-71
2023/01/14 06:45:40;;;;;;;25.45;7.97;;;;;;;;;;5059203;28;20518;-71
2023/01/14 06:48:06;;;;;;;15.20;6.03;;;;;;;;;;5059505;28;20119;-71
2023/01/14 06:50:32;;;;;;;17.98;5.50;;;;;;;;;;5054031;28;20044;-71
2023/01/14 06:53:02;;;;;;;21.48;6.18;;;;;;;;;;5059340;28;20037;-72
2023/01/14 06:55:28;;;;;;;18.55;6.50;;;;;;;;;;5064769;28;20059;-71
2023/01/14 06:57:54;;;;;;;22.95;7.13;;;;;;;;;;5059957;28;20424;-71
2023/01/14 07:00:20;;;;;;;22.63;6.35;;;;;;;;;;5058063;28;20041;-71
2023/01/14 07:02:46;;;;;;;18.92;6.28;;;;;;;;;;5060386;28;20114;-71
2023/01/14 07:05:14;;;;;;;18.13;6.60;;;;;;;;;;5063966;28;20149;-72
2023/01/14 07:07:40;;;;;;;20.98;7.43;;;;;;;;;;5061423;28;20486;-72
2023/01/14 07:10:06;;;;;;;27.90;8.32;;;;;;;;;;5060838;28;20036;-71
2023/01/14 07:12:32;;;;;;;22.38;7.40;;;;;;;;;;5065185;28;20051;-71
2023/01/14 07:14:58;;;;;;;23.70;8.45;;;;;;;;;;5065273;28;20055;-71
2023/01/14 07:17:25;;;;;;;12.27;6.57;;;;;;;;;;5050741;28;20040;-72
2023/01/14 07:19:51;;;;;;;23.77;7.80;;;;;;;;;;5063180;28;20745;-72
2023/01/14 07:22:17;;;;;;;31.10;8.77;;;;;;;;;;5059812;28;20049;-71
2023/01/14 07:24:43;;;;;;;19.25;7.90;;;;;;;;;;5061079;28;20032;-72
2023/01/14 07:27:09;;;;;;;22.02;8.70;;;;;;;;;;5059966;28;20040;-71
2023/01/14 07:29:35;;;;;;;28.77;9.57;;;;;;;;;;5061565;28;20040;-70
2023/01/14 07:32:01;;;;;;;19.38;8.63;;;;;;;;;;5059686;28;20056;-71
2023/01/14 07:34:27;;;;;;;29.70;9.20;;;;;;;;;;5056411;28;20127;-71
2023/01/14 07:36:54;;;;;;;20.95;8.35;;;;;;;;;;5072267;28;20055;-71
2023/01/14 07:39:20;;;;;;;27.80;8.90;;;;;;;;;;5058543;28;20041;-71
2023/01/14 07:41:46;;;;;;;19.17;9.75;;;;;;;;;;5064908;28;20040;-71
2023/01/14 07:44:12;;;;;;;31.70;9.00;;;;;;;;;;5059394;28;20036;-72
2023/01/14 07:46:38;;;;;;;24.65;8.52;;;;;;;;;;5063526;28;20041;-72
2023/01/14 07:49:04;;;;;;;20.55;7.28;;;;;;;;;;5040666;28;20040;-71
2023/01/14 07:51:30;;;;;;;27.08;9.38;;;;;;;;;;5060428;28;20387;-72
2023/01/14 07:53:56;;;;;;;26.83;10.07;;;;;;;;;;5058218;28;20134;-71
2023/01/14 07:56:23;;;;;;;20.13;8.60;;;;;;;;;;5059241;28;20047;-71
2023/01/14 07:58:49;;;;;;;27.85;8.65;;;;;;;;;;5063334;28;20428;-72
2023/01/14 08:01:15;;;;;;;25.90;9.32;;;;;;;;;;5055187;28;20127;-71
2023/01/14 08:03:41;;;;;;;22.38;8.00;;;;;;;;;;5061422;28;20525;-72
2023/01/14 08:06:07;;;;;;;20.48;7.82;;;;;;;;;;5059208;28;20091;-71
2023/01/14 08:08:34;;;;;;;30.38;8.23;;;;;;;;;;5061708;28;20510;-72
2023/01/14 08:11:00;;;;;;;40.70;8.75;;;;;;;;;;5058134;28;20093;-72
2023/01/14 08:13:27;;;;;;;24.95;7.65;;;;;;;;;;5063795;28;20147;-72
2023/01/14 08:15:54;;;;;;;20.40;8.18;;;;;;;;;;5058852;28;20044;-71
2023/01/14 08:18:20;;;;;;;21.67;7.78;;;;;;;;;;5051519;28;20089;-72
2023/01/14 08:20:46;;;;;;;30.02;7.53;;;;;;;;;;5054933;28;20056;-71
2023/01/14 08:23:12;;;;;;;19.08;6.88;;;;;;;;;;5059552;28;20044;-71
2023/01/14 08:25:38;;;;;;;17.85;7.80;;;;;;;;;;5060035;28;20047;-71
2023/01/14 08:28:05;;;;;;;19.77;7.05;;;;;;;;;;5052542;28;20069;-72
2023/01/14 08:30:31;;;;;;;21.02;7.03;;;;;;;;;;5051287;28;20041;-72
2023/01/14 08:32:58;;;;;;;20.70;6.35;;;;;;;;;;5045690;28;20040;-70
2023/01/14 08:35:24;;;;;;;19.63;5.60;;;;;;;;;;5048421;28;20040;-71
2023/01/14 08:37:50;;;;;;;21.00;6.53;;;;;;;;;;5055567;28;20040;-71
2023/01/14 08:40:18;;;;;;;16.70;6.47;;;;;;;;;;5060031;28;20041;-71
2023/01/14 08:42:44;;;;;;;19.38;6.32;;;;;;;;;;5054363;28;20045;-71
2023/01/14 08:45:10;;;;;;;21.05;7.25;;;;;;;;;;5059471;28;20032;-71
2023/01/14 08:47:36;;;;;;;21.42;6.35;;;;;;;;;;5067552;28;20123;-71
2023/01/14 08:50:03;;;;;;;18.27;6.32;;;;;;;;;;5051866;28;20044;-71
2023/01/14 08:52:32;;;;;;;16.42;5.95;;;;;;;;;;5058859;28;20119;-69
2023/01/14 08:54:58;;;;;;;16.02;5.93;;;;;;;;;;5074064;28;20083;-71
2023/01/14 08:57:24;;;;;;;18.20;6.53;;;;;;;;;;5060003;28;20037;-71
2023/01/14 08:59:50;;;;;;;18.58;5.78;;;;;;;;;;5035234;28;20496;-71
2023/01/14 09:02:17;;;;;;;21.35;5.72;;;;;;;;;;5052403;28;20094;-71
2023/01/14 09:04:43;;;;;;;13.52;5.65;;;;;;;;;;5056580;28;20045;-72
2023/01/14 09:18:09;;;;;;;19.50;5.15;;;;;;;;;;5059935;28;20048;-72
2023/01/14 09:20:37;;;;;;;14.52;6.10;;;;;;;;;;5057643;28;20430;-72
2023/01/14 09:23:04;;;;;;;17.50;6.70;;;;;;;;;;5068694;28;20052;-72
2023/01/14 09:25:30;;;;;;;14.45;5.43;;;;;;;;;;5060505;28;20041;-72
2023/01/14 09:27:56;;;;;;;17.30;5.57;;;;;;;;;;5063309;28;20040;-72
2023/01/14 09:30:23;;;;;;;24.90;6.47;;;;;;;;;;5061428;28;20048;-71
2023/01/14 09:32:49;;;;;;;15.02;4.95;;;;;;;;;;5058165;28;20036;-71
2023/01/14 09:35:15;;;;;;;16.90;4.40;;;;;;;;;;5058675;28;20043;-72
2023/01/14 09:37:41;;;;;;;15.07;4.97;;;;;;;;;;5060246;28;20078;-72
2023/01/14 09:40:08;;;;;;;13.32;5.13;;;;;;;;;;5058600;28;20177;-71
2023/01/14 09:42:42;;;;;;;11.98;4.35;;;;;;;;;;5058461;28;20048;-72
2023/01/14 09:45:47;;;;;;;12.43;4.82;;;;;;;;;;5063376;28;20371;-72
2023/01/14 09:48:15;;;;;;;14.20;4.43;;;;;;;;;;5015688;28;20069;-71
2023/01/14 09:50:53;;;;;;;8.95;4.35;;;;;;;;;;5015913;28;20121;-72
2023/01/14 09:53:38;;;;;;;11.15;3.75;;;;;;;;;;5038145;28;20279;-72
2023/01/14 09:56:11;;;;;;;10.60;3.22;;;;;;;;;;5062921;28;20037;-71
2023/01/14 09:58:39;;;;;;;11.57;4.35;;;;;;;;;;5057777;28;20053;-71
2023/01/14 10:01:05;;;;;;;9.88;3.35;;;;;;;;;;5058242;28;20171;-71
2023/01/14 10:03:39;;;;;;;7.72;3.55;;;;;;;;;;5035642;28;20087;-72
2023/01/14 10:06:08;;;;;;;8.10;3.58;;;;;;;;;;5056502;28;20325;-71
2023/01/14 10:08:37;;;;;;;10.68;4.22;;;;;;;;;;5051895;28;20454;-71
2023/01/14 10:11:04;;;;;;;8.80;4.20;;;;;;;;;;5059310;28;20489;-71
2023/01/14 10:13:36;;;;;;;6.50;3.67;;;;;;;;;;5058651;28;20040;-71
2023/01/14 10:16:08;;;;;;;8.38;3.97;;;;;;;;;;5053846;28;20409;-70
2023/01/14 10:18:49;;;;;;;14.03;4.33;;;;;;;;;;5053946;28;20055;-72
2023/01/14 10:21:23;;;;;;;8.50;3.90;;;;;;;;;;5057313;28;20299;-71
2023/01/14 10:23:49;;;;;;;12.07;3.33;;;;;;;;;;5054659;28;20514;-71
2023/01/14 10:26:18;;;;;;;6.55;3.55;;;;;;;;;;5056596;28;20041;-72
2023/01/14 10:28:45;;;;;;;10.02;4.50;;;;;;;;;;5053465;28;20036;-71
2023/01/14 10:31:21;;;;;;;9.05;3.63;;;;;;;;;;5052875;28;20033;-71
2023/01/14 10:33:47;;;;;;;5.72;2.97;;;;;;;;;;5058510;28;20069;-72
2023/01/14 10:36:15;;;;;;;10.45;2.85;;;;;;;;;;5059481;28;20083;-72
2023/01/14 10:38:42;;;;;;;6.30;2.60;;;;;;;;;;5059429;28;20131;-71
2023/01/14 10:41:09;;;;;;;5.10;2.92;;;;;;;;;;5056340;28;20060;-71
2023/01/14 10:43:37;;;;;;;7.90;2.65;;;;;;;;;;5057875;28;20044;-72
2023/01/14 10:46:05;;;;;;;6.57;2.55;;;;;;;;;;5053373;28;20064;-71
2023/01/14 10:48:50;;;;;;;6.35;2.22;;;;;;;;;;5055525;28;20045;-71
2023/01/14 10:51:36;;;;;;;5.82;2.13;;;;;;;;;;5055858;28;20459;-71
2023/01/14 10:54:12;;;;;;;5.00;2.28;;;;;;;;;;5059707;28;20497;-70
2023/01/14 10:56:41;;;;;;;3.10;2.00;;;;;;;;;;5062876;28;20635;-71
2023/01/14 10:59:23;;;;;;;6.95;2.10;;;;;;;;;;5055909;28;20036;-71
2023/01/14 11:01:49;;;;;;;5.53;2.53;;;;;;;;;;5057098;28;20048;-71
2023/01/14 11:04:15;;;;;;;3.70;2.38;;;;;;;;;;5057001;28;20461;-70
2023/01/14 11:06:41;;;;;;;4.65;2.10;;;;;;;;;;5057107;28;20131;-71
2023/01/14 11:09:16;;;;;;;4.80;2.72;;;;;;;;;;5061727;28;20037;-72
2023/01/14 11:11:43;;;;;;;4.60;2.17;;;;;;;;;;5059137;28;20435;-71
2023/01/14 11:14:20;;;;;;;5.20;2.65;;;;;;;;;;5057503;28;20041;-70
2023/01/14 11:16:46;;;;;;;4.47;2.22;;;;;;;;;;5057308;28;20436;-72
2023/01/14 11:19:15;;;;;;;5.38;2.63;;;;;;;;;;5063176;28;20036;-71
2023/01/14 11:21:43;;;;;;;4.05;2.40;;;;;;;;;;5061521;28;20510;-71
2023/01/14 11:24:18;;;;;;;6.10;2.83;;;;;;;;;;5064462;28;20048;-71
2023/01/14 11:26:44;;;;;;;3.83;2.33;;;;;;;;;;5055958;28;20123;-72
2023/01/14 11:29:16;;;;;;;3.85;2.30;;;;;;;;;;5061052;28;20107;-71
2023/01/14 11:31:42;;;;;;;2.95;2.00;;;;;;;;;;5058080;28;20044;-70
2023/01/14 11:34:28;;;;;;;3.65;2.03;;;;;;;;;;5056840;28;20497;-71
2023/01/14 11:37:09;;;;;;;4.80;2.40;;;;;;;;;;5056100;28;20568;-71
2023/01/14 11:39:36;;;;;;;6.72;3.20;;;;;;;;;;5056331;28;20032;-72
2023/01/14 11:42:21;;;;;;;4.15;1.95;;;;;;;;;;5059230;28;20119;-71
2023/01/14 11:44:56;;;;;;;3.55;1.92;;;;;;;;;;5059810;28;20390;-71
2023/01/14 11:47:22;;;;;;;6.43;2.55;;;;;;;;;;5061122;28;20074;-72
2023/01/14 11:49:49;;;;;;;2.88;1.90;;;;;;;;;;5067550;28;20077;-72
2023/01/14 11:52:20;;;;;;;3.15;1.70;;;;;;;;;;5057647;28;20036;-72
2023/01/14 11:54:51;;;;;;;3.63;2.17;;;;;;;;;;5051386;28;20075;-72
2023/01/14 11:57:19;;;;;;;4.00;2.25;;;;;;;;;;5058021;28;20045;-72
2023/01/14 11:59:48;;;;;;;3.83;1.63;;;;;;;;;;5058274;28;20041;-71
2023/01/14 12:02:26;;;;;;;3.90;1.80;;;;;;;;;;5056544;28;20040;-71
2023/01/14 12:04:58;;;;;;;2.88;1.95;;;;;;;;;;5056123;28;20055;-71
2023/01/14 12:07:32;;;;;;;2.97;2.15;;;;;;;;;;5060668;28;20064;-70
2023/01/14 12:10:01;;;;;;;5.43;2.30;;;;;;;;;;5063895;28;20438;-71
2023/01/14 12:18:05;;;;;;;2.92;1.75;;;;;;;;;;5059612;28;19971;-72
2023/01/14 12:20:32;;;;;;;4.72;2.15;;;;;;;;;;5058797;28;20695;-71
2023/01/14 12:23:00;;;;;;;3.72;1.60;;;;;;;;;;5056272;28;20037;-71
2023/01/14 12:25:36;;;;;;;4.50;1.90;;;;;;;;;;5047866;28;20068;-71
2023/01/14 12:28:13;;;;;;;4.13;1.75;;;7.70;99.90;;;;;;5057671;28;20380;-72
2023/01/14 12:30:51;;;;;;;3.17;1.80;;;7.70;99.90;;;;;;5056040;28;20048;-71
2023/01/14 12:33:27;;;;;;;4.20;2.00;;;7.70;99.90;;;;;;5072351;28;20447;-72
2023/01/14 12:36:17;;;;;;;7.03;2.92;;;7.70;99.90;;;;;;5058429;28;20087;-72
2023/01/14 12:47:40;;;;;;;2.67;1.27;;;7.90;99.90;;;;;;5054099;28;20419;-72
2023/01/14 12:50:09;;;;;;;5.75;1.83;;;8.00;99.90;;;;;;5061110;28;20043;-72
2023/01/14 12:52:37;;;;;;;2.97;1.55;;;;;;;;;;5062806;28;20191;-72
2023/01/14 12:55:05;;;;;;;4.13;1.48;;;8.00;99.90;;;;;;5059616;28;20459;-72
2023/01/14 12:57:35;;;;;;;2.28;1.45;;;8.10;99.90;;;;;;5058036;28;20043;-71
2023/01/14 13:00:10;;;;;;;4.28;1.60;;;8.10;99.90;;;;;;5064960;28;20039;-70
2023/01/14 13:02:42;;;;;;;2.00;1.15;;;8.20;99.90;;;;;;5057409;28;20041;-72
2023/01/14 13:05:16;;;;;;;2.70;1.30;;;8.20;99.90;;;;;;5046835;28;20055;-70
2023/01/14 13:07:50;;;;;;;3.38;1.52;;;;;;;;;;5058686;28;20037;-72
2023/01/14 13:10:45;;;;;;;1.73;1.23;;;;;;;;;;5053399;28;20037;-72
2023/01/14 13:13:22;;;;;;;3.03;1.52;;;;;;;;;;5058346;28;20121;-71
2023/01/14 13:15:48;;;;;;;2.92;1.10;;;;;;;;;;5051537;28;20044;-71
2023/01/14 13:18:33;;;;;;;2.75;1.33;;;;;;;;;;5054112;28;20079;-73
2023/01/14 13:20:59;;;;;;;3.25;1.30;;;;;;;;;;5062415;28;20494;-72
2023/01/14 13:23:51;;;;;;;3.80;1.45;;;;;;;;;;5055353;28;20047;-72
2023/01/14 13:26:17;;;;;;;2.05;1.10;;;;;;;;;;5052973;28;20626;-72
2023/01/14 13:29:02;;;;;;;2.70;1.30;;;;;;;;;;5053393;28;20093;-70
2023/01/14 13:31:33;;;;;;;1.52;1.17;;;;;;;;;;5056513;28;20425;-72
2023/01/14 13:34:29;;;;;;;2.05;1.35;;;;;;;;;;5055968;28;20049;-72
2023/01/14 13:37:04;;;;;;;1.55;1.17;;;;;;;;;;5052232;28;20045;-72
2023/01/14 13:39:31;;;;;;;2.03;1.50;;;;;;;;;;5061288;28;20062;-72
2023/01/14 13:41:58;;;;;;;2.63;1.40;;;;;;;;;;5064353;28;20080;-72
2023/01/14 13:44:29;;;;;;;3.35;1.35;;;;;;;;;;5055568;28;20025;-72
2023/01/14 13:46:58;;;;;;;2.00;1.27;;;;;;;;;;5045490;28;20067;-71
2023/01/14 13:49:44;;;;;;;1.95;1.20;;;;;;;;;;5059181;28;20037;-72
2023/01/14 13:52:21;;;;;;;2.70;1.50;;;;;;;;;;5064295;28;20545;-72
2023/01/14 13:55:14;;;;;;;4.97;1.88;;;;;;;;;;5058255;28;20132;-71
2023/01/14 13:57:46;;;;;;;2.77;2.00;;;8.30;99.90;;;;;;5056409;28;20494;-71
2023/01/14 14:00:23;;;;;;;2.22;1.80;;;9.20;99.90;;;;;;5053536;28;20301;-71
2023/01/14 14:02:54;;;;;;;2.90;1.60;;;9.20;99.90;;;;;;5058612;28;20174;-72
2023/01/14 14:05:20;;;;;;;6.68;1.50;;;9.20;99.90;;;;;;5055972;28;20041;-72
2023/01/14 14:07:46;;;;;;;2.53;1.60;;;9.20;99.90;;;;;;5056253;28;20043;-71
2023/01/14 14:10:25;;;;;;;2.35;1.38;;;9.30;99.90;;;;;;5062953;28;20036;-71
2023/01/14 14:16:10;;;;;;;1.98;1.30;;;9.30;99.90;;;;;;5057322;28;20053;-71
2023/01/14 14:18:40;;;;;;;2.08;1.20;;;9.30;99.90;;;;;;5063859;28;20070;-71
2023/01/14 14:21:20;;;;;;;2.20;1.27;;;9.30;99.90;;;;;;5061087;28;20037;-71
2023/01/14 14:23:57;;;;;;;1.77;1.23;;;9.30;99.90;;;;;;5060037;28;20037;-72
2023/01/14 14:26:29;;;;;;;2.33;1.27;;;9.30;99.90;;;;;;5054105;28;20039;-72
2023/01/14 14:29:06;;;;;;;2.08;1.30;;;9.30;99.90;;;;;;5057099;28;20047;-71
2023/01/14 14:31:35;;;;;;;5.47;1.20;;;9.30;99.90;;;;;;5056937;28;20266;-71
2023/01/14 14:34:10;;;;;;;2.17;1.27;;;9.30;99.90;;;;;;5050728;28;20087;-72
2023/01/14 14:36:38;;;;;;;2.50;1.10;;;9.30;99.90;;;;;;5054142;28;20562;-71
2023/01/14 14:39:17;;;;;;;2.22;1.30;;;9.30;99.90;;;;;;5051935;28;20090;-72
2023/01/14 14:41:45;;;;;;;3.10;1.45;;;9.40;99.90;;;;;;5051716;28;20118;-72
2023/01/14 14:44:22;;;;;;;1.83;1.25;;;9.40;99.90;;;;;;5067289;28;20041;-72
2023/01/14 14:46:48;;;;;;;3.05;1.30;;;9.40;99.90;;;;;;5053588;28;20021;-72
2023/01/14 14:49:22;;;;;;;2.95;1.63;;;9.40;99.90;;;;;;5067671;28;20044;-71
2023/01/14 14:51:50;;;;;;;1.27;0.90;;;9.40;99.90;;;;;;5075506;28;20056;-71
2023/01/14 14:54:33;;;;;;;1.50;0.95;;;9.40;99.90;;;;;;5057702;28;20051;-72
2023/01/14 14:57:03;;;;;;;2.53;1.50;;;9.40;99.90;;;;;;5053509;28;20110;-71
2023/01/14 14:59:32;;;;;;;2.38;1.27;;;9.40;99.90;;;;;;5052439;28;20072;-72
2023/01/14 15:02:00;;;;;;;1.70;1.10;;;9.40;99.90;;;;;;5053461;28;20124;-72
2023/01/14 15:04:29;;;;;;;2.95;1.63;;;9.40;99.90;;;;;;5052041;28;20091;-72
2023/01/14 15:06:58;;;;;;;3.88;1.52;;;9.40;99.90;;;;;;5063897;28;20032;-71
2023/01/14 15:09:28;;;;;;;2.38;1.40;;;9.40;99.90;;;;;;5057439;28;20032;-72
2023/01/14 15:11:57;;;;;;;2.00;1.80;;;9.40;99.90;;;;;;5062938;28;20571;-72
2023/01/14 15:14:32;;;;;;;1.65;1.40;;;9.40;99.90;;;;;;5059423;28;20186;-71
2023/01/14 15:16:59;;;;;;;2.92;1.83;;;9.40;99.90;;;;;;5053570;28;20043;-72
2023/01/14 15:19:28;;;;;;;2.88;1.70;;;9.40;99.90;;;;;;5067901;28;20048;-72